Search for airport 
image banner adimage banner adimage banner ad
image banner ad

KBFL - Meadows Field

Located in Bakersfield, United States

ICAO - BFL, IATA - BFL

Data provided by Airmate  

General information

Coordinates: N35°26'2" W119°3'28"
Elevation is 510 feet MSL.
Magnetic variation is 14° East
View others Airports in California

Operational data

Special qualification required
Current time UTC:
Current local time:
Weather
METAR: KBFL 291554Z 00000KT 7SM CLR 31/09 A2992 RMK AO2 SLP124 T03060089
TAF: KBFL 291120Z 2912/3012 VRB03KT P6SM SKC FM292000 31010G16KT P6SM SKC FM300600 VRB05KT P6SM BKN250
View NOTAMs / SUP AIP / TFR affecting this airport [VIEW]
Communications frequencies: [VIEW]

Runways:

RWY identifierQFULength (ft)Width (ft)SurfaceLDA (ft)
12R135°7700100ASPH7703
30L315°7700100ASPH6203
12L135°10849150ASPH10855
30R315°10849150ASPH7429

Airport contact information

Address: Bakersfield United States

Other aviation service providers

Flight schools

Srt Helicopters

Srt Helicopters

Excell Aviation, Inc.

Excell Aviation, Inc.

Bakersfield Flying Club, Inc.

Bakersfield Flying Club, Inc.

Satellite view of KBFL